sensor_id;sensor_type;location;lat;lon;timestamp;P1;durP1;ratioP1;P2;durP2;ratioP2
54745;SDS011;40640;48.130;11.356;2023-05-07T00:00:45;6.55;;;3.92;;
54745;SDS011;40640;48.130;11.356;2023-05-07T00:04:48;6.75;;;4.03;;
54745;SDS011;40640;48.130;11.356;2023-05-07T00:08:51;6.93;;;3.88;;
54745;SDS011;40640;48.130;11.356;2023-05-07T00:12:55;5.88;;;3.42;;
54745;SDS011;40640;48.130;11.356;2023-05-07T00:16:58;5.50;;;3.65;;
54745;SDS011;40640;48.130;11.356;2023-05-07T00:21:01;5.50;;;3.83;;
54745;SDS011;40640;48.130;11.356;2023-05-07T00:25:04;6.97;;;3.38;;
54745;SDS011;40640;48.130;11.356;2023-05-07T00:29:09;7.40;;;3.78;;
54745;SDS011;40640;48.130;11.356;2023-05-07T00:33:12;5.28;;;3.50;;
54745;SDS011;40640;48.130;11.356;2023-05-07T00:37:15;8.65;;;3.75;;
54745;SDS011;40640;48.130;11.356;2023-05-07T00:41:17;4.20;;;3.50;;
54745;SDS011;40640;48.130;11.356;2023-05-07T00:45:22;7.43;;;4.05;;
54745;SDS011;40640;48.130;11.356;2023-05-07T00:49:31;7.10;;;3.15;;
54745;SDS011;40640;48.130;11.356;2023-05-07T00:53:39;5.70;;;3.70;;
54745;SDS011;40640;48.130;11.356;2023-05-07T00:57:43;5.32;;;4.10;;
54745;SDS011;40640;48.130;11.356;2023-05-07T01:01:48;10.00;;;3.95;;
54745;SDS011;40640;48.130;11.356;2023-05-07T01:05:51;7.47;;;3.20;;
54745;SDS011;40640;48.130;11.356;2023-05-07T01:09:55;8.77;;;3.80;;
54745;SDS011;40640;48.130;11.356;2023-05-07T01:13:59;4.95;;;3.20;;
54745;SDS011;40640;48.130;11.356;2023-05-07T01:18:04;7.07;;;3.55;;
54745;SDS011;40640;48.130;11.356;2023-05-07T01:22:09;7.10;;;3.70;;
54745;SDS011;40640;48.130;11.356;2023-05-07T01:26:23;7.40;;;3.80;;
54745;SDS011;40640;48.130;11.356;2023-05-07T01:30:26;4.40;;;3.08;;
54745;SDS011;40640;48.130;11.356;2023-05-07T01:34:32;5.13;;;3.28;;
54745;SDS011;40640;48.130;11.356;2023-05-07T01:38:36;8.93;;;4.30;;
54745;SDS011;40640;48.130;11.356;2023-05-07T01:42:42;5.57;;;3.50;;
54745;SDS011;40640;48.130;11.356;2023-05-07T01:46:45;9.45;;;3.85;;
54745;SDS011;40640;48.130;11.356;2023-05-07T01:50:50;9.88;;;3.65;;
54745;SDS011;40640;48.130;11.356;2023-05-07T01:54:53;4.40;;;3.28;;
54745;SDS011;40640;48.130;11.356;2023-05-07T01:58:57;7.05;;;3.70;;
54745;SDS011;40640;48.130;11.356;2023-05-07T02:03:01;10.05;;;3.92;;
54745;SDS011;40640;48.130;11.356;2023-05-07T02:07:18;6.28;;;3.85;;
54745;SDS011;40640;48.130;11.356;2023-05-07T02:11:21;6.30;;;4.03;;
54745;SDS011;40640;48.130;11.356;2023-05-07T02:15:26;4.47;;;3.88;;
54745;SDS011;40640;48.130;11.356;2023-05-07T02:19:30;7.55;;;3.88;;
54745;SDS011;40640;48.130;11.356;2023-05-07T02:23:33;5.03;;;4.15;;
54745;SDS011;40640;48.130;11.356;2023-05-07T02:27:36;7.13;;;3.63;;
54745;SDS011;40640;48.130;11.356;2023-05-07T02:31:40;6.80;;;3.83;;
54745;SDS011;40640;48.130;11.356;2023-05-07T02:35:44;8.47;;;4.30;;
54745;SDS011;40640;48.130;11.356;2023-05-07T02:39:49;5.18;;;4.18;;
54745;SDS011;40640;48.130;11.356;2023-05-07T02:43:52;11.15;;;4.32;;
54745;SDS011;40640;48.130;11.356;2023-05-07T02:47:56;8.95;;;4.22;;
54745;SDS011;40640;48.130;11.356;2023-05-07T02:51:59;6.88;;;4.15;;
54745;SDS011;40640;48.130;11.356;2023-05-07T02:56:02;6.10;;;4.18;;
54745;SDS011;40640;48.130;11.356;2023-05-07T03:00:10;10.57;;;3.97;;
54745;SDS011;40640;48.130;11.356;2023-05-07T03:04:20;8.38;;;4.68;;
54745;SDS011;40640;48.130;11.356;2023-05-07T03:08:23;4.75;;;3.83;;
54745;SDS011;40640;48.130;11.356;2023-05-07T03:12:26;8.25;;;4.53;;
54745;SDS011;40640;48.130;11.356;2023-05-07T03:16:30;10.35;;;5.63;;
54745;SDS011;40640;48.130;11.356;2023-05-07T03:20:34;14.77;;;5.82;;
54745;SDS011;40640;48.130;11.356;2023-05-07T03:24:37;10.20;;;5.22;;
54745;SDS011;40640;48.130;11.356;2023-05-07T03:28:41;13.82;;;5.15;;
54745;SDS011;40640;48.130;11.356;2023-05-07T03:32:47;9.05;;;5.10;;
54745;SDS011;40640;48.130;11.356;2023-05-07T03:36:51;11.48;;;6.47;;
54745;SDS011;40640;48.130;11.356;2023-05-07T03:40:57;17.55;;;8.48;;
54745;SDS011;40640;48.130;11.356;2023-05-07T03:45:00;22.77;;;10.43;;
54745;SDS011;40640;48.130;11.356;2023-05-07T03:49:03;28.52;;;10.90;;
54745;SDS011;40640;48.130;11.356;2023-05-07T03:53:08;22.42;;;9.38;;
54745;SDS011;40640;48.130;11.356;2023-05-07T03:57:13;14.88;;;7.13;;
54745;SDS011;40640;48.130;11.356;2023-05-07T04:01:16;11.23;;;6.13;;
54745;SDS011;40640;48.130;11.356;2023-05-07T04:05:20;13.52;;;6.25;;
54745;SDS011;40640;48.130;11.356;2023-05-07T04:09:27;12.05;;;5.90;;
54745;SDS011;40640;48.130;11.356;2023-05-07T04:13:31;10.85;;;5.25;;
54745;SDS011;40640;48.130;11.356;2023-05-07T04:17:36;5.82;;;4.78;;
54745;SDS011;40640;48.130;11.356;2023-05-07T04:21:39;5.35;;;4.05;;
54745;SDS011;40640;48.130;11.356;2023-05-07T04:25:44;7.97;;;4.07;;
54745;SDS011;40640;48.130;11.356;2023-05-07T04:30:02;4.53;;;3.47;;
54745;SDS011;40640;48.130;11.356;2023-05-07T04:34:11;6.65;;;4.28;;
54745;SDS011;40640;48.130;11.356;2023-05-07T04:38:14;11.48;;;4.43;;
54745;SDS011;40640;48.130;11.356;2023-05-07T04:42:20;9.70;;;4.05;;
54745;SDS011;40640;48.130;11.356;2023-05-07T04:46:24;8.98;;;4.03;;
54745;SDS011;40640;48.130;11.356;2023-05-07T04:50:31;8.35;;;4.68;;
54745;SDS011;40640;48.130;11.356;2023-05-07T04:54:36;5.37;;;4.07;;
54745;SDS011;40640;48.130;11.356;2023-05-07T04:58:42;8.02;;;4.50;;
54745;SDS011;40640;48.130;11.356;2023-05-07T05:02:45;12.40;;;5.50;;
54745;SDS011;40640;48.130;11.356;2023-05-07T05:06:52;5.85;;;4.45;;
54745;SDS011;40640;48.130;11.356;2023-05-07T05:10:55;8.55;;;4.40;;
54745;SDS011;40640;48.130;11.356;2023-05-07T05:15:00;5.70;;;4.05;;
54745;SDS011;40640;48.130;11.356;2023-05-07T05:19:03;7.10;;;4.32;;
54745;SDS011;40640;48.130;11.356;2023-05-07T05:23:09;9.23;;;6.22;;
54745;SDS011;40640;48.130;11.356;2023-05-07T05:27:12;7.05;;;4.13;;
54745;SDS011;40640;48.130;11.356;2023-05-07T05:31:17;7.50;;;4.13;;
54745;SDS011;40640;48.130;11.356;2023-05-07T05:35:23;11.00;;;4.03;;
54745;SDS011;40640;48.130;11.356;2023-05-07T05:39:26;6.43;;;3.55;;
54745;SDS011;40640;48.130;11.356;2023-05-07T05:43:29;7.80;;;4.00;;
54745;SDS011;40640;48.130;11.356;2023-05-07T05:47:34;10.35;;;3.60;;
54745;SDS011;40640;48.130;11.356;2023-05-07T05:51:37;5.03;;;3.08;;
54745;SDS011;40640;48.130;11.356;2023-05-07T05:55:40;4.03;;;2.63;;
54745;SDS011;40640;48.130;11.356;2023-05-07T06:03:50;3.17;;;2.00;;
54745;SDS011;40640;48.130;11.356;2023-05-07T06:07:53;4.55;;;2.00;;
54745;SDS011;40640;48.130;11.356;2023-05-07T06:11:56;5.70;;;2.30;;
54745;SDS011;40640;48.130;11.356;2023-05-07T06:16:02;4.32;;;1.92;;
54745;SDS011;40640;48.130;11.356;2023-05-07T06:20:08;4.43;;;2.35;;
54745;SDS011;40640;48.130;11.356;2023-05-07T06:24:13;2.22;;;1.98;;
54745;SDS011;40640;48.130;11.356;2023-05-07T06:28:16;3.85;;;2.05;;
54745;SDS011;40640;48.130;11.356;2023-05-07T06:32:20;4.35;;;2.03;;
54745;SDS011;40640;48.130;11.356;2023-05-07T06:36:25;4.00;;;2.10;;
54745;SDS011;40640;48.130;11.356;2023-05-07T06:40:31;2.58;;;1.98;;
54745;SDS011;40640;48.130;11.356;2023-05-07T06:44:34;1.98;;;1.83;;
54745;SDS011;40640;48.130;11.356;2023-05-07T06:48:43;4.75;;;1.92;;
54745;SDS011;40640;48.130;11.356;2023-05-07T06:52:48;4.20;;;1.80;;
54745;SDS011;40640;48.130;11.356;2023-05-07T06:56:51;2.28;;;1.88;;
54745;SDS011;40640;48.130;11.356;2023-05-07T07:00:54;2.58;;;2.05;;
54745;SDS011;40640;48.130;11.356;2023-05-07T07:04:57;3.92;;;2.05;;
54745;SDS011;40640;48.130;11.356;2023-05-07T07:09:02;4.90;;;2.05;;
54745;SDS011;40640;48.130;11.356;2023-05-07T07:13:05;2.03;;;1.83;;
54745;SDS011;40640;48.130;11.356;2023-05-07T07:17:08;4.40;;;2.13;;
54745;SDS011;40640;48.130;11.356;2023-05-07T07:21:11;3.50;;;1.90;;
54745;SDS011;40640;48.130;11.356;2023-05-07T07:25:16;7.18;;;2.00;;
54745;SDS011;40640;48.130;11.356;2023-05-07T07:29:19;2.03;;;1.80;;
54745;SDS011;40640;48.130;11.356;2023-05-07T07:33:22;3.70;;;1.95;;
54745;SDS011;40640;48.130;11.356;2023-05-07T07:37:25;2.78;;;2.20;;
54745;SDS011;40640;48.130;11.356;2023-05-07T07:41:30;1.70;;;1.55;;
54745;SDS011;40640;48.130;11.356;2023-05-07T07:45:34;2.30;;;1.98;;
54745;SDS011;40640;48.130;11.356;2023-05-07T07:49:37;4.18;;;2.00;;
54745;SDS011;40640;48.130;11.356;2023-05-07T07:53:42;3.60;;;2.37;;
54745;SDS011;40640;48.130;11.356;2023-05-07T07:57:46;5.80;;;2.20;;
54745;SDS011;40640;48.130;11.356;2023-05-07T08:01:50;2.10;;;1.90;;
54745;SDS011;40640;48.130;11.356;2023-05-07T08:05:58;2.90;;;1.90;;
54745;SDS011;40640;48.130;11.356;2023-05-07T08:10:01;3.75;;;2.40;;
54745;SDS011;40640;48.130;11.356;2023-05-07T08:14:07;4.38;;;1.75;;
54745;SDS011;40640;48.130;11.356;2023-05-07T08:18:10;4.50;;;2.65;;
54745;SDS011;40640;48.130;11.356;2023-05-07T08:22:14;4.00;;;2.42;;
54745;SDS011;40640;48.130;11.356;2023-05-07T08:26:17;5.45;;;2.50;;
54745;SDS011;40640;48.130;11.356;2023-05-07T08:30:23;5.20;;;2.53;;
54745;SDS011;40640;48.130;11.356;2023-05-07T08:34:27;6.93;;;2.42;;
54745;SDS011;40640;48.130;11.356;2023-05-07T08:38:31;5.35;;;2.50;;
54745;SDS011;40640;48.130;11.356;2023-05-07T08:42:35;4.18;;;2.35;;
54745;SDS011;40640;48.130;11.356;2023-05-07T08:46:40;3.28;;;2.20;;
54745;SDS011;40640;48.130;11.356;2023-05-07T08:50:44;2.78;;;2.15;;
54745;SDS011;40640;48.130;11.356;2023-05-07T08:54:48;3.75;;;2.33;;
54745;SDS011;40640;48.130;11.356;2023-05-07T08:58:51;2.45;;;2.03;;
54745;SDS011;40640;48.130;11.356;2023-05-07T09:02:59;6.35;;;2.30;;
54745;SDS011;40640;48.130;11.356;2023-05-07T09:07:04;4.13;;;2.28;;
54745;SDS011;40640;48.130;11.356;2023-05-07T09:11:12;3.67;;;2.35;;
54745;SDS011;40640;48.130;11.356;2023-05-07T09:15:15;4.53;;;2.13;;
54745;SDS011;40640;48.130;11.356;2023-05-07T09:19:23;3.05;;;2.22;;
54745;SDS011;40640;48.130;11.356;2023-05-07T09:23:28;2.50;;;2.08;;
54745;SDS011;40640;48.130;11.356;2023-05-07T09:27:31;3.60;;;2.20;;
54745;SDS011;40640;48.130;11.356;2023-05-07T09:31:36;3.85;;;1.77;;
54745;SDS011;40640;48.130;11.356;2023-05-07T09:35:42;2.22;;;1.98;;
54745;SDS011;40640;48.130;11.356;2023-05-07T09:39:50;4.32;;;1.70;;
54745;SDS011;40640;48.130;11.356;2023-05-07T09:43:56;5.05;;;1.90;;
54745;SDS011;40640;48.130;11.356;2023-05-07T09:48:06;3.72;;;1.60;;
54745;SDS011;40640;48.130;11.356;2023-05-07T09:52:11;4.00;;;1.75;;
54745;SDS011;40640;48.130;11.356;2023-05-07T09:56:21;4.28;;;3.10;;
54745;SDS011;40640;48.130;11.356;2023-05-07T10:00:25;3.83;;;2.42;;
54745;SDS011;40640;48.130;11.356;2023-05-07T10:04:37;3.25;;;2.00;;
54745;SDS011;40640;48.130;11.356;2023-05-07T10:08:44;3.00;;;1.70;;
54745;SDS011;40640;48.130;11.356;2023-05-07T10:12:47;2.65;;;1.95;;
54745;SDS011;40640;48.130;11.356;2023-05-07T10:21:34;5.43;;;1.90;;
54745;SDS011;40640;48.130;11.356;2023-05-07T10:25:40;5.63;;;2.30;;
54745;SDS011;40640;48.130;11.356;2023-05-07T10:29:53;2.42;;;1.60;;
54745;SDS011;40640;48.130;11.356;2023-05-07T10:34:07;3.25;;;1.70;;
54745;SDS011;40640;48.130;11.356;2023-05-07T10:38:12;2.88;;;2.10;;
54745;SDS011;40640;48.130;11.356;2023-05-07T10:42:19;5.05;;;1.77;;
54745;SDS011;40640;48.130;11.356;2023-05-07T10:46:26;4.00;;;1.67;;
54745;SDS011;40640;48.130;11.356;2023-05-07T10:50:41;3.72;;;1.80;;
54745;SDS011;40640;48.130;11.356;2023-05-07T10:54:45;4.55;;;2.00;;
54745;SDS011;40640;48.130;11.356;2023-05-07T10:58:51;3.20;;;1.92;;
54745;SDS011;40640;48.130;11.356;2023-05-07T11:03:05;4.40;;;1.77;;
54745;SDS011;40640;48.130;11.356;2023-05-07T11:07:27;5.28;;;2.00;;
54745;SDS011;40640;48.130;11.356;2023-05-07T11:16:19;3.15;;;1.70;;
54745;SDS011;40640;48.130;11.356;2023-05-07T11:20:44;3.30;;;1.73;;
54745;SDS011;40640;48.130;11.356;2023-05-07T11:25:17;6.57;;;2.05;;
54745;SDS011;40640;48.130;11.356;2023-05-07T11:29:27;3.05;;;1.65;;
54745;SDS011;40640;48.130;11.356;2023-05-07T11:33:45;2.30;;;1.60;;
54745;SDS011;40640;48.130;11.356;2023-05-07T11:37:50;4.25;;;1.80;;
54745;SDS011;40640;48.130;11.356;2023-05-07T11:42:03;6.73;;;1.90;;
54745;SDS011;40640;48.130;11.356;2023-05-07T11:46:08;1.90;;;1.80;;
54745;SDS011;40640;48.130;11.356;2023-05-07T11:50:13;2.95;;;1.90;;
54745;SDS011;40640;48.130;11.356;2023-05-07T11:54:16;5.03;;;1.90;;
54745;SDS011;40640;48.130;11.356;2023-05-07T11:58:20;4.68;;;1.45;;
54745;SDS011;40640;48.130;11.356;2023-05-07T12:02:24;2.55;;;1.60;;
54745;SDS011;40640;48.130;11.356;2023-05-07T12:06:31;3.67;;;1.95;;
54745;SDS011;40640;48.130;11.356;2023-05-07T12:10:33;2.00;;;1.60;;
54745;SDS011;40640;48.130;11.356;2023-05-07T12:14:37;3.53;;;2.07;;
54745;SDS011;40640;48.130;11.356;2023-05-07T12:18:41;2.45;;;2.00;;
54745;SDS011;40640;48.130;11.356;2023-05-07T12:22:45;3.08;;;1.90;;
54745;SDS011;40640;48.130;11.356;2023-05-07T12:26:50;3.58;;;1.95;;
54745;SDS011;40640;48.130;11.356;2023-05-07T12:30:53;3.63;;;1.80;;
54745;SDS011;40640;48.130;11.356;2023-05-07T12:34:56;5.50;;;1.80;;
54745;SDS011;40640;48.130;11.356;2023-05-07T12:39:00;2.38;;;1.45;;
54745;SDS011;40640;48.130;11.356;2023-05-07T12:47:06;2.55;;;1.70;;
54745;SDS011;40640;48.130;11.356;2023-05-07T12:51:09;4.90;;;1.90;;
54745;SDS011;40640;48.130;11.356;2023-05-07T12:59:19;3.10;;;1.73;;
54745;SDS011;40640;48.130;11.356;2023-05-07T13:03:33;2.40;;;1.60;;
54745;SDS011;40640;48.130;11.356;2023-05-07T13:07:37;2.50;;;1.60;;
54745;SDS011;40640;48.130;11.356;2023-05-07T13:11:41;3.00;;;1.50;;
54745;SDS011;40640;48.130;11.356;2023-05-07T13:15:44;3.83;;;1.47;;
54745;SDS011;40640;48.130;11.356;2023-05-07T13:19:47;1.50;;;1.30;;
54745;SDS011;40640;48.130;11.356;2023-05-07T13:23:50;4.18;;;1.77;;
54745;SDS011;40640;48.130;11.356;2023-05-07T13:27:54;2.75;;;1.40;;
54745;SDS011;40640;48.130;11.356;2023-05-07T13:32:11;5.68;;;1.80;;
54745;SDS011;40640;48.130;11.356;2023-05-07T13:36:14;6.55;;;1.70;;
54745;SDS011;40640;48.130;11.356;2023-05-07T13:40:17;2.20;;;1.60;;
54745;SDS011;40640;48.130;11.356;2023-05-07T13:44:22;3.20;;;1.60;;
54745;SDS011;40640;48.130;11.356;2023-05-07T13:48:25;4.63;;;1.37;;
54745;SDS011;40640;48.130;11.356;2023-05-07T13:52:28;4.00;;;1.80;;
54745;SDS011;40640;48.130;11.356;2023-05-07T13:56:31;2.03;;;1.80;;
54745;SDS011;40640;48.130;11.356;2023-05-07T14:00:35;2.88;;;1.30;;
54745;SDS011;40640;48.130;11.356;2023-05-07T14:04:38;1.95;;;1.42;;
54745;SDS011;40640;48.130;11.356;2023-05-07T14:08:41;3.67;;;1.35;;
54745;SDS011;40640;48.130;11.356;2023-05-07T14:12:44;4.45;;;2.05;;
54745;SDS011;40640;48.130;11.356;2023-05-07T14:16:50;3.28;;;1.88;;
54745;SDS011;40640;48.130;11.356;2023-05-07T14:20:53;3.13;;;1.77;;
54745;SDS011;40640;48.130;11.356;2023-05-07T14:24:55;3.88;;;1.83;;
54745;SDS011;40640;48.130;11.356;2023-05-07T14:29:16;3.45;;;1.92;;
54745;SDS011;40640;48.130;11.356;2023-05-07T14:33:26;4.80;;;1.70;;
54745;SDS011;40640;48.130;11.356;2023-05-07T14:37:28;3.20;;;2.08;;
54745;SDS011;40640;48.130;11.356;2023-05-07T14:41:31;2.40;;;2.00;;
54745;SDS011;40640;48.130;11.356;2023-05-07T14:45:34;4.10;;;1.77;;
54745;SDS011;40640;48.130;11.356;2023-05-07T14:49:39;5.25;;;2.17;;
54745;SDS011;40640;48.130;11.356;2023-05-07T14:53:43;3.22;;;2.50;;
54745;SDS011;40640;48.130;11.356;2023-05-07T14:57:46;2.55;;;2.20;;
54745;SDS011;40640;48.130;11.356;2023-05-07T15:01:49;3.08;;;2.28;;
54745;SDS011;40640;48.130;11.356;2023-05-07T15:05:53;3.55;;;2.60;;
54745;SDS011;40640;48.130;11.356;2023-05-07T15:09:56;4.07;;;2.45;;
54745;SDS011;40640;48.130;11.356;2023-05-07T15:13:58;5.00;;;2.40;;
54745;SDS011;40640;48.130;11.356;2023-05-07T15:18:01;4.00;;;2.47;;
54745;SDS011;40640;48.130;11.356;2023-05-07T15:22:06;3.75;;;2.80;;
54745;SDS011;40640;48.130;11.356;2023-05-07T15:26:10;6.50;;;2.47;;
54745;SDS011;40640;48.130;11.356;2023-05-07T15:30:13;6.22;;;2.25;;
54745;SDS011;40640;48.130;11.356;2023-05-07T15:34:16;2.70;;;2.28;;
54745;SDS011;40640;48.130;11.356;2023-05-07T15:38:21;3.10;;;2.80;;
54745;SDS011;40640;48.130;11.356;2023-05-07T15:42:23;3.45;;;2.03;;
54745;SDS011;40640;48.130;11.356;2023-05-07T15:46:26;2.75;;;1.90;;
54745;SDS011;40640;48.130;11.356;2023-05-07T15:50:29;3.50;;;2.10;;
54745;SDS011;40640;48.130;11.356;2023-05-07T15:54:34;3.78;;;2.13;;
54745;SDS011;40640;48.130;11.356;2023-05-07T15:58:38;6.95;;;2.40;;
54745;SDS011;40640;48.130;11.356;2023-05-07T16:02:41;2.65;;;2.25;;
54745;SDS011;40640;48.130;11.356;2023-05-07T16:06:44;4.05;;;2.10;;
54745;SDS011;40640;48.130;11.356;2023-05-07T16:10:49;3.05;;;1.80;;
54745;SDS011;40640;48.130;11.356;2023-05-07T16:14:52;5.25;;;2.10;;
54745;SDS011;40640;48.130;11.356;2023-05-07T16:18:54;2.28;;;1.77;;
54745;SDS011;40640;48.130;11.356;2023-05-07T16:22:57;4.60;;;2.08;;
54745;SDS011;40640;48.130;11.356;2023-05-07T16:27:02;2.40;;;1.80;;
54745;SDS011;40640;48.130;11.356;2023-05-07T16:31:06;4.10;;;2.38;;
54745;SDS011;40640;48.130;11.356;2023-05-07T16:35:09;4.97;;;2.40;;
54745;SDS011;40640;48.130;11.356;2023-05-07T16:39:13;2.63;;;2.00;;
54745;SDS011;40640;48.130;11.356;2023-05-07T16:43:17;9.23;;;2.10;;
54745;SDS011;40640;48.130;11.356;2023-05-07T16:47:20;2.05;;;1.70;;
54745;SDS011;40640;48.130;11.356;2023-05-07T16:51:23;2.38;;;1.73;;
54745;SDS011;40640;48.130;11.356;2023-05-07T16:55:26;3.40;;;2.03;;
54745;SDS011;40640;48.130;11.356;2023-05-07T16:59:32;5.95;;;1.70;;
54745;SDS011;40640;48.130;11.356;2023-05-07T17:03:35;3.22;;;1.65;;
54745;SDS011;40640;48.130;11.356;2023-05-07T17:07:38;3.40;;;1.98;;
54745;SDS011;40640;48.130;11.356;2023-05-07T17:11:41;2.55;;;1.63;;
54745;SDS011;40640;48.130;11.356;2023-05-07T17:15:45;3.75;;;1.83;;
54745;SDS011;40640;48.130;11.356;2023-05-07T17:19:48;3.45;;;1.73;;
54745;SDS011;40640;48.130;11.356;2023-05-07T17:23:51;3.38;;;1.80;;
54745;SDS011;40640;48.130;11.356;2023-05-07T17:27:54;4.60;;;1.75;;
54745;SDS011;40640;48.130;11.356;2023-05-07T17:31:58;2.47;;;1.73;;
54745;SDS011;40640;48.130;11.356;2023-05-07T17:36:01;1.63;;;1.38;;
54745;SDS011;40640;48.130;11.356;2023-05-07T17:40:04;2.25;;;1.58;;
54745;SDS011;40640;48.130;11.356;2023-05-07T17:44:08;2.00;;;1.80;;
54745;SDS011;40640;48.130;11.356;2023-05-07T17:48:12;3.42;;;2.05;;
54745;SDS011;40640;48.130;11.356;2023-05-07T17:52:15;8.80;;;2.50;;
54745;SDS011;40640;48.130;11.356;2023-05-07T17:56:18;6.25;;;2.58;;
54745;SDS011;40640;48.130;11.356;2023-05-07T18:00:21;3.22;;;2.67;;
54745;SDS011;40640;48.130;11.356;2023-05-07T18:04:26;5.07;;;2.10;;
54745;SDS011;40640;48.130;11.356;2023-05-07T18:08:29;5.22;;;2.20;;
54745;SDS011;40640;48.130;11.356;2023-05-07T18:12:31;6.60;;;2.28;;
54745;SDS011;40640;48.130;11.356;2023-05-07T18:16:34;2.17;;;1.90;;
54745;SDS011;40640;48.130;11.356;2023-05-07T18:20:38;3.00;;;2.15;;
54745;SDS011;40640;48.130;11.356;2023-05-07T18:24:41;3.95;;;2.00;;
54745;SDS011;40640;48.130;11.356;2023-05-07T18:28:44;3.55;;;2.38;;
54745;SDS011;40640;48.130;11.356;2023-05-07T18:32:47;4.13;;;2.22;;
54745;SDS011;40640;48.130;11.356;2023-05-07T18:36:51;2.33;;;2.00;;
54745;SDS011;40640;48.130;11.356;2023-05-07T18:40:59;3.90;;;2.00;;
54745;SDS011;40640;48.130;11.356;2023-05-07T18:45:02;3.17;;;2.10;;
54745;SDS011;40640;48.130;11.356;2023-05-07T18:49:05;2.55;;;2.17;;
54745;SDS011;40640;48.130;11.356;2023-05-07T18:53:10;2.90;;;1.98;;
54745;SDS011;40640;48.130;11.356;2023-05-07T18:57:12;2.83;;;2.42;;
54745;SDS011;40640;48.130;11.356;2023-05-07T19:01:16;3.33;;;1.90;;
54745;SDS011;40640;48.130;11.356;2023-05-07T19:05:19;4.75;;;2.60;;
54745;SDS011;40640;48.130;11.356;2023-05-07T19:09:23;2.72;;;2.22;;
54745;SDS011;40640;48.130;11.356;2023-05-07T19:13:26;4.72;;;2.08;;
54745;SDS011;40640;48.130;11.356;2023-05-07T19:17:29;3.42;;;2.00;;
54745;SDS011;40640;48.130;11.356;2023-05-07T19:21:32;6.40;;;2.33;;
54745;SDS011;40640;48.130;11.356;2023-05-07T19:25:36;3.45;;;2.25;;
54745;SDS011;40640;48.130;11.356;2023-05-07T19:29:39;4.45;;;2.00;;
54745;SDS011;40640;48.130;11.356;2023-05-07T19:33:42;5.82;;;2.20;;
54745;SDS011;40640;48.130;11.356;2023-05-07T19:37:45;2.97;;;2.10;;
54745;SDS011;40640;48.130;11.356;2023-05-07T19:41:49;2.67;;;2.03;;
54745;SDS011;40640;48.130;11.356;2023-05-07T19:45:52;4.57;;;2.35;;
54745;SDS011;40640;48.130;11.356;2023-05-07T19:49:55;3.80;;;2.40;;
54745;SDS011;40640;48.130;11.356;2023-05-07T19:53:58;9.60;;;2.25;;
54745;SDS011;40640;48.130;11.356;2023-05-07T19:58:02;3.33;;;2.67;;
54745;SDS011;40640;48.130;11.356;2023-05-07T20:02:05;2.83;;;2.22;;
54745;SDS011;40640;48.130;11.356;2023-05-07T20:06:08;4.93;;;2.20;;
54745;SDS011;40640;48.130;11.356;2023-05-07T20:10:11;3.63;;;2.63;;
54745;SDS011;40640;48.130;11.356;2023-05-07T20:14:16;3.33;;;2.65;;
54745;SDS011;40640;48.130;11.356;2023-05-07T20:18:19;5.60;;;3.30;;
54745;SDS011;40640;48.130;11.356;2023-05-07T20:22:22;4.43;;;3.33;;
54745;SDS011;40640;48.130;11.356;2023-05-07T20:26:25;7.20;;;3.30;;
54745;SDS011;40640;48.130;11.356;2023-05-07T20:30:29;5.22;;;3.30;;
54745;SDS011;40640;48.130;11.356;2023-05-07T20:34:32;7.00;;;3.72;;
54745;SDS011;40640;48.130;11.356;2023-05-07T20:38:35;7.35;;;4.13;;
54745;SDS011;40640;48.130;11.356;2023-05-07T20:42:38;10.68;;;4.18;;
54745;SDS011;40640;48.130;11.356;2023-05-07T20:46:44;19.08;;;9.07;;
54745;SDS011;40640;48.130;11.356;2023-05-07T20:50:47;7.35;;;5.95;;
54745;SDS011;40640;48.130;11.356;2023-05-07T20:54:51;9.10;;;4.60;;
54745;SDS011;40640;48.130;11.356;2023-05-07T20:58:54;5.30;;;4.32;;
54745;SDS011;40640;48.130;11.356;2023-05-07T21:02:58;7.43;;;4.90;;
54745;SDS011;40640;48.130;11.356;2023-05-07T21:07:01;6.50;;;4.82;;
54745;SDS011;40640;48.130;11.356;2023-05-07T21:11:04;10.52;;;4.60;;
54745;SDS011;40640;48.130;11.356;2023-05-07T21:15:07;5.82;;;4.82;;
54745;SDS011;40640;48.130;11.356;2023-05-07T21:19:12;7.43;;;4.93;;
54745;SDS011;40640;48.130;11.356;2023-05-07T21:23:16;8.07;;;5.13;;
54745;SDS011;40640;48.130;11.356;2023-05-07T21:27:18;8.00;;;4.90;;
54745;SDS011;40640;48.130;11.356;2023-05-07T21:31:21;6.80;;;4.93;;
54745;SDS011;40640;48.130;11.356;2023-05-07T21:35:26;8.95;;;4.38;;
54745;SDS011;40640;48.130;11.356;2023-05-07T21:39:29;10.05;;;4.88;;
54745;SDS011;40640;48.130;11.356;2023-05-07T21:43:31;7.78;;;5.20;;
54745;SDS011;40640;48.130;11.356;2023-05-07T21:47:34;6.97;;;5.18;;
54745;SDS011;40640;48.130;11.356;2023-05-07T21:51:39;6.80;;;5.65;;
54745;SDS011;40640;48.130;11.356;2023-05-07T21:55:42;7.22;;;5.50;;
54745;SDS011;40640;48.130;11.356;2023-05-07T21:59:44;9.18;;;6.57;;
54745;SDS011;40640;48.130;11.356;2023-05-07T22:03:47;8.55;;;5.78;;
54745;SDS011;40640;48.130;11.356;2023-05-07T22:07:52;8.13;;;5.60;;
54745;SDS011;40640;48.130;11.356;2023-05-07T22:11:55;8.40;;;5.70;;
54745;SDS011;40640;48.130;11.356;2023-05-07T22:15:57;7.30;;;5.45;;
54745;SDS011;40640;48.130;11.356;2023-05-07T22:20:00;6.57;;;5.40;;
54745;SDS011;40640;48.130;11.356;2023-05-07T22:24:05;8.93;;;5.80;;
54745;SDS011;40640;48.130;11.356;2023-05-07T22:28:08;8.65;;;6.40;;
54745;SDS011;40640;48.130;11.356;2023-05-07T22:32:13;9.38;;;6.90;;
54745;SDS011;40640;48.130;11.356;2023-05-07T22:36:16;8.63;;;6.40;;
54745;SDS011;40640;48.130;11.356;2023-05-07T22:40:20;8.15;;;6.03;;
54745;SDS011;40640;48.130;11.356;2023-05-07T22:44:23;7.05;;;5.40;;
54745;SDS011;40640;48.130;11.356;2023-05-07T22:48:26;8.38;;;6.20;;
54745;SDS011;40640;48.130;11.356;2023-05-07T22:52:28;8.73;;;6.00;;
54745;SDS011;40640;48.130;11.356;2023-05-07T22:56:32;7.85;;;5.45;;
54745;SDS011;40640;48.130;11.356;2023-05-07T23:00:36;11.98;;;5.97;;
54745;SDS011;40640;48.130;11.356;2023-05-07T23:04:39;8.98;;;6.65;;
54745;SDS011;40640;48.130;11.356;2023-05-07T23:08:42;7.85;;;6.53;;
54745;SDS011;40640;48.130;11.356;2023-05-07T23:12:46;8.32;;;6.05;;
54745;SDS011;40640;48.130;11.356;2023-05-07T23:16:50;9.07;;;6.25;;
54745;SDS011;40640;48.130;11.356;2023-05-07T23:20:53;8.48;;;6.13;;
54745;SDS011;40640;48.130;11.356;2023-05-07T23:24:56;10.20;;;6.47;;
54745;SDS011;40640;48.130;11.356;2023-05-07T23:29:00;9.40;;;6.30;;
54745;SDS011;40640;48.130;11.356;2023-05-07T23:33:03;8.02;;;6.45;;
54745;SDS011;40640;48.130;11.356;2023-05-07T23:37:07;9.30;;;6.65;;
54745;SDS011;40640;48.130;11.356;2023-05-07T23:41:09;9.52;;;6.38;;
54745;SDS011;40640;48.130;11.356;2023-05-07T23:45:14;6.90;;;5.95;;
54745;SDS011;40640;48.130;11.356;2023-05-07T23:49:16;9.40;;;6.10;;
54745;SDS011;40640;48.130;11.356;2023-05-07T23:53:19;9.13;;;5.85;;
54745;SDS011;40640;48.130;11.356;2023-05-07T23:57:22;9.57;;;5.28;;
